sensor_id;sensor_type;location;lat;lon;timestamp;noise_LAeq;noise_LA_min;noise_LA_max;noise_LA01;noise_LA95
79200;Laerm;68628;48.714;9.472;2023-06-10T00:02:11;43.04;32.03;58.46;;
79200;Laerm;68628;48.714;9.472;2023-06-10T00:04:37;41.67;31.79;60.86;;
79200;Laerm;68628;48.714;9.472;2023-06-10T00:07:04;38.25;32.74;45.64;;
79200;Laerm;68628;48.714;9.472;2023-06-10T00:09:38;42.61;33.95;56.56;;
79200;Laerm;68628;48.714;9.472;2023-06-10T00:12:08;38.59;34.03;45.53;;
79200;Laerm;68628;48.714;9.472;2023-06-10T00:14:40;37.61;31.36;49.29;;
79200;Laerm;68628;48.714;9.472;2023-06-10T00:17:06;35.74;31.91;46.54;;
79200;Laerm;68628;48.714;9.472;2023-06-10T00:19:37;37.63;31.24;49.20;;
79200;Laerm;68628;48.714;9.472;2023-06-10T00:22:07;37.13;31.94;44.13;;
79200;Laerm;68628;48.714;9.472;2023-06-10T00:24:33;38.00;33.57;46.08;;
79200;Laerm;68628;48.714;9.472;2023-06-10T00:26:59;36.37;32.44;44.42;;
79200;Laerm;68628;48.714;9.472;2023-06-10T00:29:25;35.30;32.12;41.99;;
79200;Laerm;68628;48.714;9.472;2023-06-10T00:31:51;37.70;33.04;44.88;;
79200;Laerm;68628;48.714;9.472;2023-06-10T00:34:19;39.84;32.98;53.13;;
79200;Laerm;68628;48.714;9.472;2023-06-10T00:36:44;37.90;31.79;47.94;;
79200;Laerm;68628;48.714;9.472;2023-06-10T00:39:10;33.44;29.30;44.74;;
79200;Laerm;68628;48.714;9.472;2023-06-10T00:41:36;33.44;29.94;42.37;;
79200;Laerm;68628;48.714;9.472;2023-06-10T00:44:02;34.37;29.61;42.47;;
79200;Laerm;68628;48.714;9.472;2023-06-10T00:46:28;39.08;32.64;51.88;;
79200;Laerm;68628;48.714;9.472;2023-06-10T00:48:58;36.15;32.79;41.57;;
79200;Laerm;68628;48.714;9.472;2023-06-10T00:51:23;36.56;33.06;40.72;;
79200;Laerm;68628;48.714;9.472;2023-06-10T00:53:52;38.75;33.45;45.44;;
79200;Laerm;68628;48.714;9.472;2023-06-10T00:56:18;44.18;33.34;52.74;;
79200;Laerm;68628;48.714;9.472;2023-06-10T00:58:44;43.96;33.16;54.00;;
79200;Laerm;68628;48.714;9.472;2023-06-10T01:01:10;36.08;32.34;44.33;;
79200;Laerm;68628;48.714;9.472;2023-06-10T01:03:39;35.67;31.60;43.71;;
79200;Laerm;68628;48.714;9.472;2023-06-10T01:06:23;36.27;32.80;45.68;;
79200;Laerm;68628;48.714;9.472;2023-06-10T01:09:02;38.48;33.98;47.85;;
79200;Laerm;68628;48.714;9.472;2023-06-10T01:11:44;42.32;33.75;56.66;;
79200;Laerm;68628;48.714;9.472;2023-06-10T01:14:13;44.65;32.18;57.04;;
79200;Laerm;68628;48.714;9.472;2023-06-10T01:16:40;39.02;32.23;51.28;;
79200;Laerm;68628;48.714;9.472;2023-06-10T01:19:07;35.76;32.70;46.55;;
79200;Laerm;68628;48.714;9.472;2023-06-10T01:21:33;41.53;32.16;54.15;;
79200;Laerm;68628;48.714;9.472;2023-06-10T01:23:59;35.03;31.14;44.79;;
79200;Laerm;68628;48.714;9.472;2023-06-10T01:26:30;34.96;31.50;43.09;;
79200;Laerm;68628;48.714;9.472;2023-06-10T01:29:07;36.15;32.87;44.09;;
79200;Laerm;68628;48.714;9.472;2023-06-10T01:34:14;36.62;31.32;43.56;;
79200;Laerm;68628;48.714;9.472;2023-06-10T01:36:47;45.06;33.66;54.18;;
79200;Laerm;68628;48.714;9.472;2023-06-10T01:39:16;38.66;32.36;44.70;;
79200;Laerm;68628;48.714;9.472;2023-06-10T01:41:43;38.50;32.36;47.21;;
79200;Laerm;68628;48.714;9.472;2023-06-10T01:44:10;40.52;33.58;50.60;;
79200;Laerm;68628;48.714;9.472;2023-06-10T01:46:36;38.16;31.65;46.60;;
79200;Laerm;68628;48.714;9.472;2023-06-10T01:49:01;34.64;30.40;39.94;;
79200;Laerm;68628;48.714;9.472;2023-06-10T01:51:27;33.19;30.00;39.00;;
79200;Laerm;68628;48.714;9.472;2023-06-10T01:53:53;35.60;31.21;41.06;;
79200;Laerm;68628;48.714;9.472;2023-06-10T01:56:18;39.59;34.36;44.91;;
79200;Laerm;68628;48.714;9.472;2023-06-10T01:58:48;43.20;32.73;57.03;;
79200;Laerm;68628;48.714;9.472;2023-06-10T02:01:14;38.60;30.99;49.80;;
79200;Laerm;68628;48.714;9.472;2023-06-10T02:03:40;40.81;34.54;54.13;;
79200;Laerm;68628;48.714;9.472;2023-06-10T02:06:06;37.38;32.66;45.84;;
79200;Laerm;68628;48.714;9.472;2023-06-10T02:08:32;42.37;32.33;53.24;;
79200;Laerm;68628;48.714;9.472;2023-06-10T02:10:57;38.39;33.53;45.40;;
79200;Laerm;68628;48.714;9.472;2023-06-10T02:13:23;42.69;35.49;54.48;;
79200;Laerm;68628;48.714;9.472;2023-06-10T02:15:48;39.42;35.49;45.30;;
79200;Laerm;68628;48.714;9.472;2023-06-10T02:18:14;44.55;37.05;53.23;;
79200;Laerm;68628;48.714;9.472;2023-06-10T02:20:40;47.18;38.75;62.04;;
79200;Laerm;68628;48.714;9.472;2023-06-10T02:23:05;45.36;38.75;55.57;;
79200;Laerm;68628;48.714;9.472;2023-06-10T02:25:31;44.39;37.65;54.67;;
79200;Laerm;68628;48.714;9.472;2023-06-10T02:27:57;44.01;37.78;53.03;;
79200;Laerm;68628;48.714;9.472;2023-06-10T02:30:23;44.53;37.75;54.23;;
79200;Laerm;68628;48.714;9.472;2023-06-10T02:32:48;44.05;37.57;53.39;;
79200;Laerm;68628;48.714;9.472;2023-06-10T02:35:14;45.26;37.14;53.77;;
79200;Laerm;68628;48.714;9.472;2023-06-10T02:37:40;50.61;37.80;66.13;;
79200;Laerm;68628;48.714;9.472;2023-06-10T02:40:08;49.98;39.18;61.57;;
79200;Laerm;68628;48.714;9.472;2023-06-10T02:42:34;45.45;38.08;53.86;;
79200;Laerm;68628;48.714;9.472;2023-06-10T02:45:00;45.28;38.01;55.39;;
79200;Laerm;68628;48.714;9.472;2023-06-10T02:47:26;54.52;37.44;64.50;;
79200;Laerm;68628;48.714;9.472;2023-06-10T02:49:51;52.54;37.92;66.39;;
79200;Laerm;68628;48.714;9.472;2023-06-10T02:52:17;53.05;37.88;62.57;;
79200;Laerm;68628;48.714;9.472;2023-06-10T02:54:43;54.83;38.92;63.11;;
79200;Laerm;68628;48.714;9.472;2023-06-10T02:57:08;53.80;37.56;63.45;;
79200;Laerm;68628;48.714;9.472;2023-06-10T02:59:35;53.90;37.69;62.88;;
79200;Laerm;68628;48.714;9.472;2023-06-10T03:02:01;54.30;39.25;67.02;;
79200;Laerm;68628;48.714;9.472;2023-06-10T03:04:27;53.49;38.81;64.08;;
79200;Laerm;68628;48.714;9.472;2023-06-10T03:06:54;45.25;37.35;61.52;;
79200;Laerm;68628;48.714;9.472;2023-06-10T03:09:20;44.40;37.56;51.98;;
79200;Laerm;68628;48.714;9.472;2023-06-10T03:11:46;47.75;38.62;60.20;;
79200;Laerm;68628;48.714;9.472;2023-06-10T03:14:11;45.22;38.25;59.92;;
79200;Laerm;68628;48.714;9.472;2023-06-10T03:16:37;44.18;38.02;55.72;;
79200;Laerm;68628;48.714;9.472;2023-06-10T03:19:08;44.18;38.24;54.89;;
79200;Laerm;68628;48.714;9.472;2023-06-10T03:21:35;44.70;36.51;52.99;;
79200;Laerm;68628;48.714;9.472;2023-06-10T03:24:03;45.83;37.86;60.42;;
79200;Laerm;68628;48.714;9.472;2023-06-10T03:26:29;46.76;38.62;53.31;;
79200;Laerm;68628;48.714;9.472;2023-06-10T03:28:55;44.67;37.37;54.99;;
79200;Laerm;68628;48.714;9.472;2023-06-10T03:31:21;43.18;36.30;55.77;;
79200;Laerm;68628;48.714;9.472;2023-06-10T03:33:47;43.53;36.62;57.62;;
79200;Laerm;68628;48.714;9.472;2023-06-10T03:36:13;48.52;37.08;65.69;;
79200;Laerm;68628;48.714;9.472;2023-06-10T03:38:39;44.80;36.89;66.50;;
79200;Laerm;68628;48.714;9.472;2023-06-10T03:41:05;44.71;36.68;55.60;;
79200;Laerm;68628;48.714;9.472;2023-06-10T03:43:31;43.31;37.68;50.98;;
79200;Laerm;68628;48.714;9.472;2023-06-10T03:45:57;45.94;38.64;54.50;;
79200;Laerm;68628;48.714;9.472;2023-06-10T03:48:23;46.48;39.76;58.75;;
79200;Laerm;68628;48.714;9.472;2023-06-10T03:50:48;44.38;36.77;54.02;;
79200;Laerm;68628;48.714;9.472;2023-06-10T03:53:16;42.68;35.56;56.97;;
79200;Laerm;68628;48.714;9.472;2023-06-10T03:55:42;42.58;34.98;59.28;;
79200;Laerm;68628;48.714;9.472;2023-06-10T03:58:08;39.40;34.95;51.01;;
79200;Laerm;68628;48.714;9.472;2023-06-10T04:00:34;41.89;35.87;54.51;;
79200;Laerm;68628;48.714;9.472;2023-06-10T04:03:10;44.09;37.84;53.32;;
79200;Laerm;68628;48.714;9.472;2023-06-10T04:05:41;46.67;41.06;51.72;;
79200;Laerm;68628;48.714;9.472;2023-06-10T04:08:08;43.37;38.13;53.66;;
79200;Laerm;68628;48.714;9.472;2023-06-10T04:10:34;43.78;37.85;52.45;;
79200;Laerm;68628;48.714;9.472;2023-06-10T04:13:00;43.85;36.82;52.42;;
79200;Laerm;68628;48.714;9.472;2023-06-10T04:15:26;43.03;36.51;53.31;;
79200;Laerm;68628;48.714;9.472;2023-06-10T04:17:51;44.78;38.86;51.25;;
79200;Laerm;68628;48.714;9.472;2023-06-10T04:20:18;45.24;37.43;53.08;;
79200;Laerm;68628;48.714;9.472;2023-06-10T04:22:44;41.68;36.26;52.88;;
79200;Laerm;68628;48.714;9.472;2023-06-10T04:25:10;41.71;37.55;58.66;;
79200;Laerm;68628;48.714;9.472;2023-06-10T04:27:35;44.51;36.44;51.45;;
79200;Laerm;68628;48.714;9.472;2023-06-10T04:30:03;42.06;37.11;48.15;;
79200;Laerm;68628;48.714;9.472;2023-06-10T04:32:29;44.07;38.65;51.78;;
79200;Laerm;68628;48.714;9.472;2023-06-10T04:34:55;47.06;38.66;61.02;;
79200;Laerm;68628;48.714;9.472;2023-06-10T04:37:21;44.55;37.00;57.07;;
79200;Laerm;68628;48.714;9.472;2023-06-10T04:39:47;46.19;36.47;60.12;;
79200;Laerm;68628;48.714;9.472;2023-06-10T04:42:12;51.77;37.11;66.26;;
79200;Laerm;68628;48.714;9.472;2023-06-10T04:44:38;43.74;37.55;58.34;;
79200;Laerm;68628;48.714;9.472;2023-06-10T04:47:04;43.25;37.69;52.66;;
79200;Laerm;68628;48.714;9.472;2023-06-10T04:49:30;47.96;38.30;60.32;;
79200;Laerm;68628;48.714;9.472;2023-06-10T04:51:55;48.69;38.23;61.63;;
79200;Laerm;68628;48.714;9.472;2023-06-10T04:54:21;44.68;37.89;53.92;;
79200;Laerm;68628;48.714;9.472;2023-06-10T04:56:46;47.31;38.06;58.43;;
79200;Laerm;68628;48.714;9.472;2023-06-10T04:59:12;47.19;37.72;57.58;;
79200;Laerm;68628;48.714;9.472;2023-06-10T05:01:39;42.63;37.67;53.14;;
79200;Laerm;68628;48.714;9.472;2023-06-10T05:04:05;47.05;39.72;54.75;;
79200;Laerm;68628;48.714;9.472;2023-06-10T05:06:31;45.53;38.25;53.61;;
79200;Laerm;68628;48.714;9.472;2023-06-10T05:08:56;45.86;38.00;52.79;;
79200;Laerm;68628;48.714;9.472;2023-06-10T05:11:22;43.22;36.02;54.24;;
79200;Laerm;68628;48.714;9.472;2023-06-10T05:13:48;44.10;36.85;57.17;;
79200;Laerm;68628;48.714;9.472;2023-06-10T05:16:14;45.48;36.68;57.75;;
79200;Laerm;68628;48.714;9.472;2023-06-10T05:18:40;43.19;35.30;55.76;;
79200;Laerm;68628;48.714;9.472;2023-06-10T05:21:06;42.04;36.17;54.64;;
79200;Laerm;68628;48.714;9.472;2023-06-10T05:23:33;43.18;36.39;56.11;;
79200;Laerm;68628;48.714;9.472;2023-06-10T05:25:59;44.43;37.18;59.54;;
79200;Laerm;68628;48.714;9.472;2023-06-10T05:28:25;45.49;36.15;57.44;;
79200;Laerm;68628;48.714;9.472;2023-06-10T05:30:51;51.61;36.09;76.25;;
79200;Laerm;68628;48.714;9.472;2023-06-10T05:33:17;43.13;35.67;53.41;;
79200;Laerm;68628;48.714;9.472;2023-06-10T05:35:42;44.34;36.84;55.73;;
79200;Laerm;68628;48.714;9.472;2023-06-10T05:38:08;50.37;35.53;62.88;;
79200;Laerm;68628;48.714;9.472;2023-06-10T05:40:34;42.97;35.40;53.82;;
79200;Laerm;68628;48.714;9.472;2023-06-10T05:42:59;45.42;36.29;57.87;;
79200;Laerm;68628;48.714;9.472;2023-06-10T05:45:25;45.82;36.03;56.50;;
79200;Laerm;68628;48.714;9.472;2023-06-10T05:47:51;45.22;36.73;57.53;;
79200;Laerm;68628;48.714;9.472;2023-06-10T05:50:17;47.44;36.94;60.63;;
79200;Laerm;68628;48.714;9.472;2023-06-10T05:52:42;40.89;35.94;50.13;;
79200;Laerm;68628;48.714;9.472;2023-06-10T05:55:09;47.44;37.25;57.08;;
79200;Laerm;68628;48.714;9.472;2023-06-10T05:57:34;49.37;37.96;64.68;;
79200;Laerm;68628;48.714;9.472;2023-06-10T06:00:00;44.77;36.30;58.23;;
79200;Laerm;68628;48.714;9.472;2023-06-10T06:02:26;50.07;36.35;57.21;;
79200;Laerm;68628;48.714;9.472;2023-06-10T06:04:51;42.34;36.16;50.82;;
79200;Laerm;68628;48.714;9.472;2023-06-10T06:07:17;43.74;36.91;55.29;;
79200;Laerm;68628;48.714;9.472;2023-06-10T06:09:46;47.63;36.70;62.81;;
79200;Laerm;68628;48.714;9.472;2023-06-10T06:12:12;40.90;35.52;52.10;;
79200;Laerm;68628;48.714;9.472;2023-06-10T06:14:38;45.92;37.71;56.34;;
79200;Laerm;68628;48.714;9.472;2023-06-10T06:17:05;48.08;37.65;69.50;;
79200;Laerm;68628;48.714;9.472;2023-06-10T06:19:31;41.24;37.57;50.34;;
79200;Laerm;68628;48.714;9.472;2023-06-10T06:21:57;47.52;38.62;60.03;;
79200;Laerm;68628;48.714;9.472;2023-06-10T06:24:22;52.01;38.41;64.32;;
79200;Laerm;68628;48.714;9.472;2023-06-10T06:26:48;56.93;37.78;70.72;;
79200;Laerm;68628;48.714;9.472;2023-06-10T06:29:14;39.78;34.83;50.19;;
79200;Laerm;68628;48.714;9.472;2023-06-10T06:31:39;42.67;36.01;53.92;;
79200;Laerm;68628;48.714;9.472;2023-06-10T06:34:05;50.16;37.08;65.47;;
79200;Laerm;68628;48.714;9.472;2023-06-10T06:36:31;44.38;35.77;55.99;;
79200;Laerm;68628;48.714;9.472;2023-06-10T06:38:56;41.77;35.30;50.91;;
79200;Laerm;68628;48.714;9.472;2023-06-10T06:41:26;54.42;35.41;67.23;;
79200;Laerm;68628;48.714;9.472;2023-06-10T06:43:54;50.99;35.03;65.06;;
79200;Laerm;68628;48.714;9.472;2023-06-10T06:46:21;44.84;35.73;54.21;;
79200;Laerm;68628;48.714;9.472;2023-06-10T06:48:48;43.95;34.65;54.35;;
79200;Laerm;68628;48.714;9.472;2023-06-10T06:51:13;44.69;34.73;54.97;;
79200;Laerm;68628;48.714;9.472;2023-06-10T06:53:39;48.64;37.11;59.16;;
79200;Laerm;68628;48.714;9.472;2023-06-10T06:56:11;48.60;35.46;64.51;;
79200;Laerm;68628;48.714;9.472;2023-06-10T06:58:37;48.18;35.18;56.12;;
79200;Laerm;68628;48.714;9.472;2023-06-10T07:01:04;43.93;35.41;54.85;;
79200;Laerm;68628;48.714;9.472;2023-06-10T07:03:29;45.70;35.24;56.65;;
79200;Laerm;68628;48.714;9.472;2023-06-10T07:06:12;44.92;35.28;52.51;;
79200;Laerm;68628;48.714;9.472;2023-06-10T07:08:37;40.45;33.85;53.26;;
79200;Laerm;68628;48.714;9.472;2023-06-10T07:11:03;47.36;34.52;61.56;;
79200;Laerm;68628;48.714;9.472;2023-06-10T07:13:30;46.63;36.62;58.85;;
79200;Laerm;68628;48.714;9.472;2023-06-10T07:15:55;45.10;36.33;54.57;;
79200;Laerm;68628;48.714;9.472;2023-06-10T07:18:21;45.47;36.94;56.23;;
79200;Laerm;68628;48.714;9.472;2023-06-10T07:20:47;46.79;37.03;54.83;;
79200;Laerm;68628;48.714;9.472;2023-06-10T07:23:12;41.94;34.72;56.96;;
79200;Laerm;68628;48.714;9.472;2023-06-10T07:25:41;46.67;36.83;59.60;;
79200;Laerm;68628;48.714;9.472;2023-06-10T07:28:07;43.09;36.49;53.29;;
79200;Laerm;68628;48.714;9.472;2023-06-10T07:30:33;46.58;36.36;57.88;;
79200;Laerm;68628;48.714;9.472;2023-06-10T07:32:58;45.07;37.51;54.34;;
79200;Laerm;68628;48.714;9.472;2023-06-10T07:35:24;46.97;38.21;55.91;;
79200;Laerm;68628;48.714;9.472;2023-06-10T07:37:51;48.06;37.70;58.73;;
79200;Laerm;68628;48.714;9.472;2023-06-10T07:40:16;45.35;37.32;54.48;;
79200;Laerm;68628;48.714;9.472;2023-06-10T07:42:42;42.97;36.52;54.33;;
79200;Laerm;68628;48.714;9.472;2023-06-10T07:45:08;45.81;36.06;57.69;;
79200;Laerm;68628;48.714;9.472;2023-06-10T07:47:35;45.73;35.16;56.31;;
79200;Laerm;68628;48.714;9.472;2023-06-10T07:50:01;45.92;36.88;58.48;;
79200;Laerm;68628;48.714;9.472;2023-06-10T07:52:26;47.96;37.49;58.66;;
79200;Laerm;68628;48.714;9.472;2023-06-10T07:54:53;47.75;37.93;65.90;;
79200;Laerm;68628;48.714;9.472;2023-06-10T07:57:19;45.24;37.20;54.84;;
79200;Laerm;68628;48.714;9.472;2023-06-10T07:59:45;52.55;43.79;67.28;;
79200;Laerm;68628;48.714;9.472;2023-06-10T08:02:11;47.76;36.37;67.77;;
79200;Laerm;68628;48.714;9.472;2023-06-10T08:04:36;44.51;34.36;53.03;;
79200;Laerm;68628;48.714;9.472;2023-06-10T08:07:21;43.45;35.36;52.68;;
79200;Laerm;68628;48.714;9.472;2023-06-10T08:09:47;49.02;41.04;58.68;;
79200;Laerm;68628;48.714;9.472;2023-06-10T08:12:13;47.92;39.16;61.43;;
79200;Laerm;68628;48.714;9.472;2023-06-10T08:14:39;46.22;36.38;58.79;;
79200;Laerm;68628;48.714;9.472;2023-06-10T08:17:05;57.67;40.93;65.54;;
79200;Laerm;68628;48.714;9.472;2023-06-10T08:19:31;53.72;45.90;63.79;;
79200;Laerm;68628;48.714;9.472;2023-06-10T08:22:00;52.28;36.75;59.99;;
79200;Laerm;68628;48.714;9.472;2023-06-10T08:24:26;51.80;38.69;60.39;;
79200;Laerm;68628;48.714;9.472;2023-06-10T08:26:52;48.69;37.77;58.56;;
79200;Laerm;68628;48.714;9.472;2023-06-10T08:29:17;50.78;37.40;65.44;;
79200;Laerm;68628;48.714;9.472;2023-06-10T08:31:44;49.39;39.27;62.06;;
79200;Laerm;68628;48.714;9.472;2023-06-10T08:34:10;49.26;39.81;55.89;;
79200;Laerm;68628;48.714;9.472;2023-06-10T08:36:36;45.35;35.81;61.14;;
79200;Laerm;68628;48.714;9.472;2023-06-10T08:39:02;47.52;37.11;54.76;;
79200;Laerm;68628;48.714;9.472;2023-06-10T08:41:30;48.62;37.95;57.64;;
79200;Laerm;68628;48.714;9.472;2023-06-10T08:44:11;52.51;38.40;64.08;;
79200;Laerm;68628;48.714;9.472;2023-06-10T08:46:41;53.42;39.73;68.22;;
79200;Laerm;68628;48.714;9.472;2023-06-10T08:49:18;49.87;39.85;65.39;;
79200;Laerm;68628;48.714;9.472;2023-06-10T08:51:50;47.79;39.19;57.84;;
79200;Laerm;68628;48.714;9.472;2023-06-10T08:54:27;48.54;38.20;62.07;;
79200;Laerm;68628;48.714;9.472;2023-06-10T08:56:57;50.15;40.37;63.08;;
79200;Laerm;68628;48.714;9.472;2023-06-10T08:59:25;48.87;36.62;65.41;;
79200;Laerm;68628;48.714;9.472;2023-06-10T09:01:53;47.84;39.57;57.93;;
79200;Laerm;68628;48.714;9.472;2023-06-10T09:04:20;51.59;39.41;63.36;;
79200;Laerm;68628;48.714;9.472;2023-06-10T09:06:49;51.21;38.93;68.31;;
79200;Laerm;68628;48.714;9.472;2023-06-10T09:09:15;48.20;39.12;60.11;;
79200;Laerm;68628;48.714;9.472;2023-06-10T09:11:42;48.31;38.32;62.67;;
79200;Laerm;68628;48.714;9.472;2023-06-10T09:14:08;47.00;36.03;57.20;;
79200;Laerm;68628;48.714;9.472;2023-06-10T09:16:34;49.28;40.18;58.85;;
79200;Laerm;68628;48.714;9.472;2023-06-10T09:19:01;48.59;39.05;59.05;;
79200;Laerm;68628;48.714;9.472;2023-06-10T09:21:36;48.44;39.64;59.80;;
79200;Laerm;68628;48.714;9.472;2023-06-10T09:24:02;48.63;38.46;63.04;;
79200;Laerm;68628;48.714;9.472;2023-06-10T09:26:29;51.08;37.59;63.90;;
79200;Laerm;68628;48.714;9.472;2023-06-10T09:29:06;46.19;36.22;61.85;;
79200;Laerm;68628;48.714;9.472;2023-06-10T09:31:36;42.45;35.72;51.89;;
79200;Laerm;68628;48.714;9.472;2023-06-10T09:34:11;46.25;38.09;58.62;;
79200;Laerm;68628;48.714;9.472;2023-06-10T09:36:39;51.70;39.32;63.65;;
79200;Laerm;68628;48.714;9.472;2023-06-10T09:39:15;48.42;38.16;68.44;;
79200;Laerm;68628;48.714;9.472;2023-06-10T09:41:45;48.14;38.62;57.61;;
79200;Laerm;68628;48.714;9.472;2023-06-10T09:44:18;46.81;36.69;63.92;;
79200;Laerm;68628;48.714;9.472;2023-06-10T09:46:49;54.84;38.37;70.07;;
79200;Laerm;68628;48.714;9.472;2023-06-10T09:49:18;46.15;37.81;61.62;;
79200;Laerm;68628;48.714;9.472;2023-06-10T09:51:53;46.02;37.70;67.03;;
79200;Laerm;68628;48.714;9.472;2023-06-10T09:54:20;48.33;36.76;71.43;;
79200;Laerm;68628;48.714;9.472;2023-06-10T09:56:52;45.81;36.84;58.80;;
79200;Laerm;68628;48.714;9.472;2023-06-10T09:59:30;44.84;37.56;60.67;;
79200;Laerm;68628;48.714;9.472;2023-06-10T10:02:00;48.57;34.79;63.38;;
79200;Laerm;68628;48.714;9.472;2023-06-10T10:04:26;50.95;35.53;62.77;;
79200;Laerm;68628;48.714;9.472;2023-06-10T10:06:53;48.67;35.72;58.06;;
79200;Laerm;68628;48.714;9.472;2023-06-10T10:09:19;48.91;36.40;64.47;;
79200;Laerm;68628;48.714;9.472;2023-06-10T10:11:47;54.07;38.06;76.10;;
79200;Laerm;68628;48.714;9.472;2023-06-10T10:14:16;43.99;37.14;55.38;;
79200;Laerm;68628;48.714;9.472;2023-06-10T10:16:42;46.25;36.55;58.16;;
79200;Laerm;68628;48.714;9.472;2023-06-10T10:19:18;44.95;36.68;59.02;;
79200;Laerm;68628;48.714;9.472;2023-06-10T10:22:08;44.78;35.93;65.76;;
79200;Laerm;68628;48.714;9.472;2023-06-10T10:24:50;47.70;35.76;59.55;;
79200;Laerm;68628;48.714;9.472;2023-06-10T10:27:36;48.41;42.78;60.34;;
79200;Laerm;68628;48.714;9.472;2023-06-10T10:30:09;47.66;40.55;55.64;;
79200;Laerm;68628;48.714;9.472;2023-06-10T10:32:55;44.16;35.69;54.59;;
79200;Laerm;68628;48.714;9.472;2023-06-10T10:35:23;45.65;36.83;56.32;;
79200;Laerm;68628;48.714;9.472;2023-06-10T10:37:55;47.32;37.26;61.52;;
79200;Laerm;68628;48.714;9.472;2023-06-10T10:40:22;46.70;38.52;54.85;;
79200;Laerm;68628;48.714;9.472;2023-06-10T10:42:50;45.71;38.47;60.33;;
79200;Laerm;68628;48.714;9.472;2023-06-10T10:45:16;44.42;36.69;57.44;;
79200;Laerm;68628;48.714;9.472;2023-06-10T10:47:45;44.93;33.82;54.28;;
79200;Laerm;68628;48.714;9.472;2023-06-10T10:50:17;42.07;34.84;51.84;;
79200;Laerm;68628;48.714;9.472;2023-06-10T10:55:20;46.62;36.64;56.75;;
79200;Laerm;68628;48.714;9.472;2023-06-10T10:58:04;48.86;38.05;68.14;;
79200;Laerm;68628;48.714;9.472;2023-06-10T11:00:56;45.46;36.46;58.63;;
79200;Laerm;68628;48.714;9.472;2023-06-10T11:03:28;44.72;37.90;55.55;;
79200;Laerm;68628;48.714;9.472;2023-06-10T11:05:57;46.91;36.73;59.48;;
79200;Laerm;68628;48.714;9.472;2023-06-10T11:10:58;47.76;35.35;63.04;;
79200;Laerm;68628;48.714;9.472;2023-06-10T11:13:27;46.70;37.46;60.62;;
79200;Laerm;68628;48.714;9.472;2023-06-10T11:15:58;47.69;39.72;62.64;;
79200;Laerm;68628;48.714;9.472;2023-06-10T11:18:29;46.53;36.34;55.63;;
79200;Laerm;68628;48.714;9.472;2023-06-10T11:20:57;45.21;35.22;54.77;;
79200;Laerm;68628;48.714;9.472;2023-06-10T11:31:28;43.08;34.25;51.87;;
79200;Laerm;68628;48.714;9.472;2023-06-10T11:33:58;42.35;34.25;54.02;;
79200;Laerm;68628;48.714;9.472;2023-06-10T11:36:26;47.45;34.14;61.79;;
79200;Laerm;68628;48.714;9.472;2023-06-10T11:39:02;41.48;32.59;54.52;;
79200;Laerm;68628;48.714;9.472;2023-06-10T11:41:30;45.12;36.20;58.20;;
79200;Laerm;68628;48.714;9.472;2023-06-10T11:44:12;46.34;41.40;53.40;;
79200;Laerm;68628;48.714;9.472;2023-06-10T11:46:39;48.35;35.50;61.26;;
79200;Laerm;68628;48.714;9.472;2023-06-10T11:49:06;46.36;36.18;56.05;;
79200;Laerm;68628;48.714;9.472;2023-06-10T11:51:38;49.71;37.11;60.56;;
79200;Laerm;68628;48.714;9.472;2023-06-10T11:54:05;40.74;34.35;52.39;;
79200;Laerm;68628;48.714;9.472;2023-06-10T11:56:32;45.57;35.02;56.55;;
79200;Laerm;68628;48.714;9.472;2023-06-10T11:59:06;44.35;35.48;58.59;;
79200;Laerm;68628;48.714;9.472;2023-06-10T12:01:40;45.28;35.83;59.71;;
79200;Laerm;68628;48.714;9.472;2023-06-10T12:04:11;43.25;34.51;54.17;;
79200;Laerm;68628;48.714;9.472;2023-06-10T12:06:50;49.28;37.70;61.17;;
79200;Laerm;68628;48.714;9.472;2023-06-10T12:09:25;46.30;36.31;59.86;;
79200;Laerm;68628;48.714;9.472;2023-06-10T12:12:05;46.39;36.48;66.02;;
79200;Laerm;68628;48.714;9.472;2023-06-10T12:14:58;49.32;37.64;62.27;;
79200;Laerm;68628;48.714;9.472;2023-06-10T12:20:24;45.79;37.10;63.26;;
79200;Laerm;68628;48.714;9.472;2023-06-10T12:22:59;48.60;39.21;60.90;;
79200;Laerm;68628;48.714;9.472;2023-06-10T12:25:31;47.08;36.69;60.23;;
79200;Laerm;68628;48.714;9.472;2023-06-10T12:28:09;44.93;37.65;57.52;;
79200;Laerm;68628;48.714;9.472;2023-06-10T12:31:10;43.66;35.88;56.43;;
79200;Laerm;68628;48.714;9.472;2023-06-10T12:34:08;45.45;33.74;60.42;;
79200;Laerm;68628;48.714;9.472;2023-06-10T12:36:51;48.30;35.35;68.85;;
79200;Laerm;68628;48.714;9.472;2023-06-10T12:39:23;43.93;34.27;61.08;;
79200;Laerm;68628;48.714;9.472;2023-06-10T12:42:00;47.79;35.53;59.47;;
79200;Laerm;68628;48.714;9.472;2023-06-10T12:44:56;47.82;33.61;61.57;;
79200;Laerm;68628;48.714;9.472;2023-06-10T12:48:11;49.93;35.51;65.15;;
79200;Laerm;68628;48.714;9.472;2023-06-10T12:53:32;45.90;36.24;60.32;;
79200;Laerm;68628;48.714;9.472;2023-06-10T12:56:11;45.03;35.55;52.53;;
79200;Laerm;68628;48.714;9.472;2023-06-10T12:59:07;45.63;36.75;58.35;;
79200;Laerm;68628;48.714;9.472;2023-06-10T13:02:07;45.17;37.56;57.72;;
79200;Laerm;68628;48.714;9.472;2023-06-10T13:04:36;43.13;34.66;57.67;;
79200;Laerm;68628;48.714;9.472;2023-06-10T13:07:32;43.42;34.57;53.92;;
79200;Laerm;68628;48.714;9.472;2023-06-10T13:10:10;49.77;35.77;65.21;;
79200;Laerm;68628;48.714;9.472;2023-06-10T13:12:55;64.32;33.89;75.92;;
79200;Laerm;68628;48.714;9.472;2023-06-10T13:15:34;70.55;64.45;76.21;;
79200;Laerm;68628;48.714;9.472;2023-06-10T13:18:03;67.48;62.60;70.87;;
79200;Laerm;68628;48.714;9.472;2023-06-10T13:20:35;65.37;38.92;75.23;;
79200;Laerm;68628;48.714;9.472;2023-06-10T13:23:10;43.58;35.77;57.23;;
79200;Laerm;68628;48.714;9.472;2023-06-10T13:25:39;67.55;36.29;73.45;;
79200;Laerm;68628;48.714;9.472;2023-06-10T13:28:11;62.68;37.83;68.34;;
79200;Laerm;68628;48.714;9.472;2023-06-10T13:30:51;49.93;33.94;60.69;;
79200;Laerm;68628;48.714;9.472;2023-06-10T13:36:20;56.93;36.82;64.42;;
79200;Laerm;68628;48.714;9.472;2023-06-10T13:38:54;58.87;53.29;66.69;;
79200;Laerm;68628;48.714;9.472;2023-06-10T13:41:38;57.34;43.90;61.59;;
79200;Laerm;68628;48.714;9.472;2023-06-10T13:44:12;54.88;35.44;66.56;;
79200;Laerm;68628;48.714;9.472;2023-06-10T13:49:55;49.38;35.28;65.26;;
79200;Laerm;68628;48.714;9.472;2023-06-10T13:52:39;48.70;35.35;64.12;;
79200;Laerm;68628;48.714;9.472;2023-06-10T13:55:13;44.46;34.12;57.50;;
79200;Laerm;68628;48.714;9.472;2023-06-10T14:00:51;42.60;34.41;54.95;;
79200;Laerm;68628;48.714;9.472;2023-06-10T14:03:34;43.80;35.64;52.39;;
79200;Laerm;68628;48.714;9.472;2023-06-10T14:06:15;45.28;36.47;54.48;;
79200;Laerm;68628;48.714;9.472;2023-06-10T14:08:56;45.40;36.44;57.39;;
79200;Laerm;68628;48.714;9.472;2023-06-10T14:11:41;45.44;34.94;58.83;;
79200;Laerm;68628;48.714;9.472;2023-06-10T14:14:12;46.87;36.74;60.62;;
79200;Laerm;68628;48.714;9.472;2023-06-10T14:16:53;40.99;34.63;56.23;;
79200;Laerm;68628;48.714;9.472;2023-06-10T14:19:37;42.83;35.94;52.53;;
79200;Laerm;68628;48.714;9.472;2023-06-10T14:22:14;44.78;35.32;56.43;;
79200;Laerm;68628;48.714;9.472;2023-06-10T14:25:02;47.73;35.51;58.23;;
79200;Laerm;68628;48.714;9.472;2023-06-10T14:27:36;45.93;37.81;58.93;;
79200;Laerm;68628;48.714;9.472;2023-06-10T14:30:13;44.31;36.30;55.89;;